createdAt,value
2019-04-22T00:02:13.823Z,93083.58
2019-04-22T00:04:54.711Z,93083.05
2019-04-22T00:07:36.213Z,93074.36
2019-04-22T00:10:11.795Z,93072.08
2019-04-22T00:12:42.339Z,93070.30
2019-04-22T00:15:04.016Z,93074.29
2019-04-22T00:17:48.304Z,93069.21
2019-04-22T00:20:11.469Z,93065.21
2019-04-22T00:22:42.589Z,93057.64
2019-04-22T00:25:17.035Z,93054.28
2019-04-22T00:27:40.730Z,93049.43
2019-04-22T00:30:13.495Z,93050.38
2019-04-22T00:32:45.936Z,93049.04
2019-04-22T00:35:16.650Z,93040.63
2019-04-22T00:37:43.718Z,93039.16
2019-04-22T00:40:16.528Z,93040.92
2019-04-22T00:45:15.697Z,93031.48
2019-04-22T00:47:41.560Z,93036.64
2019-04-22T00:52:41.705Z,93032.73
2019-04-22T00:55:12.373Z,93030.23
2019-04-22T00:57:42.612Z,93031.67
2019-04-22T01:00:11.990Z,93029.06
2019-04-22T01:02:48.012Z,93025.08
2019-04-22T01:05:16.989Z,93022.97
2019-04-22T01:07:44.579Z,93028.44
2019-04-22T01:10:11.602Z,93017.97
2019-04-22T01:12:44.026Z,93013.04
2019-04-22T01:15:20.846Z,93018.53
2019-04-22T01:17:46.446Z,93008.53
2019-04-22T01:22:38.151Z,93004.91
2019-04-22T01:25:08.590Z,92998.17
2019-04-22T01:27:36.626Z,92994.86
2019-04-22T01:30:02.483Z,92991.45
2019-04-22T01:32:27.312Z,92983.45
2019-04-22T01:35:02.333Z,92986.02
2019-04-22T01:37:34.532Z,92993.93
2019-04-22T01:40:17.785Z,92989.14
2019-04-22T01:42:53.557Z,92987.07
2019-04-22T01:45:14.244Z,92983.59
2019-04-22T01:47:43.755Z,92976.63
2019-04-22T01:50:15.833Z,92980.80
2019-04-22T01:52:47.326Z,92977.17
2019-04-22T01:55:17.691Z,92971.98
2019-04-22T01:57:44.460Z,92963.73
2019-04-22T02:00:05.237Z,92962.81
2019-04-22T02:02:42.165Z,92961.51
2019-04-22T02:07:42.104Z,92953.81
2019-04-22T02:10:20.837Z,92945.54
2019-04-22T02:12:45.895Z,92946.17
2019-04-22T02:15:16.750Z,92946.78
2019-04-22T02:17:53.151Z,92945.38
2019-04-22T02:20:19.763Z,92939.04
2019-04-22T02:23:40.375Z,92939.73
2019-04-22T02:25:51.642Z,92938.42
2019-04-22T02:28:25.669Z,92939.84
2019-04-22T02:31:01.942Z,92931.13
2019-04-22T02:33:46.600Z,92929.66
2019-04-22T02:36:20.237Z,92928.73
2019-04-22T02:38:34.065Z,92921.16
2019-04-22T02:41:10.196Z,92922.25
2019-04-22T02:43:35.635Z,92916.55
2019-04-22T02:46:02.985Z,92918.25
2019-04-22T02:48:44.180Z,92910.60
2019-04-22T02:50:54.133Z,92906.75
2019-04-22T02:53:58.418Z,92910.58
2019-04-22T02:56:05.005Z,92903.62
2019-04-22T02:58:32.716Z,92897.00
2019-04-22T03:01:01.385Z,92895.66
2019-04-22T03:03:31.320Z,92895.38
2019-04-22T03:06:05.513Z,92895.95
2019-04-22T03:08:25.585Z,92894.70
2019-04-22T03:13:32.447Z,92892.23
2019-04-22T03:16:01.266Z,92889.81
2019-04-22T03:18:29.150Z,92887.72
2019-04-22T03:28:30.976Z,92884.95
2019-04-22T03:36:08.577Z,92883.36
2019-04-22T03:38:51.687Z,92883.39
2019-04-22T03:41:05.478Z,92880.00
2019-04-22T03:43:38.102Z,92882.47
2019-04-22T03:45:52.990Z,92886.34
2019-04-22T03:48:35.861Z,92886.60
2019-04-22T03:51:09.582Z,92880.11
2019-04-22T03:56:03.982Z,92880.09
2019-04-22T03:58:28.473Z,92873.91
2019-04-22T04:01:21.766Z,92874.73
2019-04-22T04:03:29.033Z,92871.41
2019-04-22T04:10:55.318Z,92861.02
2019-04-22T04:15:55.870Z,92859.90
2019-04-22T04:18:39.254Z,92864.50
2019-04-22T04:21:14.515Z,92853.27
2019-04-22T04:23:37.469Z,92857.91
2019-04-22T04:26:04.381Z,92852.54
2019-04-22T04:30:59.948Z,92848.16
2019-04-22T04:33:31.062Z,92851.24
2019-04-22T04:38:38.802Z,92847.17
2019-04-22T04:40:58.255Z,92847.22
2019-04-22T04:43:42.069Z,92848.86
2019-04-22T04:46:06.469Z,92847.58
2019-04-22T04:48:44.826Z,92849.58
2019-04-22T04:53:29.172Z,92852.07
2019-04-22T04:56:02.065Z,92851.62
2019-04-22T05:01:07.132Z,92849.14
2019-04-22T05:03:43.600Z,92842.86
2019-04-22T05:06:07.510Z,92840.48
2019-04-22T05:08:52.871Z,92834.84
2019-04-22T05:11:16.150Z,92835.27
2019-04-22T05:13:35.086Z,92831.25
2019-04-22T05:16:17.393Z,92829.80
2019-04-22T05:18:29.663Z,92829.77
2019-04-22T05:21:12.310Z,92832.55
2019-04-22T05:23:30.441Z,92829.98
2019-04-22T05:26:02.887Z,92835.70
2019-04-22T05:28:24.400Z,92827.28
2019-04-22T05:30:56.782Z,92827.34
2019-04-22T05:35:53.784Z,92822.48
2019-04-22T05:38:27.161Z,92819.01
2019-04-22T05:40:56.558Z,92811.47
2019-04-22T05:43:22.644Z,92820.89
2019-04-22T05:45:54.798Z,92809.41
2019-04-22T05:48:30.497Z,92811.89
2019-04-22T05:50:56.442Z,92808.31
2019-04-22T05:53:20.120Z,92809.44
2019-04-22T05:55:55.499Z,92811.33
2019-04-22T05:58:24.319Z,92813.80
2019-04-22T06:01:32.241Z,92807.83
2019-04-22T06:03:39.000Z,92801.60
2019-04-22T06:06:09.250Z,92798.79
2019-04-22T06:08:30.203Z,92799.58
2019-04-22T06:11:09.193Z,92794.55
2019-04-22T06:13:27.654Z,92798.31
2019-04-22T06:16:07.419Z,92793.38
2019-04-22T06:18:33.448Z,92794.47
2019-04-22T06:21:09.089Z,92784.36
2019-04-22T06:23:44.427Z,92786.67
2019-04-22T06:31:12.275Z,92783.55
2019-04-22T06:33:33.946Z,92785.47
2019-04-22T06:38:36.158Z,92780.20
2019-04-22T06:41:09.319Z,92777.42
2019-04-22T06:43:38.173Z,92773.34
2019-04-22T06:46:08.491Z,92778.34
2019-04-22T06:48:36.292Z,92786.30
2019-04-22T06:51:04.937Z,92781.13
2019-04-22T06:53:34.650Z,92771.38
2019-04-22T06:56:04.839Z,92771.27
2019-04-22T06:58:36.587Z,92766.39
2019-04-22T07:01:09.506Z,92761.36
2019-04-22T07:03:41.675Z,92764.44
2019-04-22T07:06:08.193Z,92757.01
2019-04-22T07:09:06.688Z,92751.72
2019-04-22T07:11:01.650Z,92753.01
2019-04-22T07:13:43.928Z,92748.61
2019-04-22T07:16:04.630Z,92750.09
2019-04-22T07:18:37.311Z,92745.29
2019-04-22T07:26:04.238Z,92735.28
2019-04-22T07:28:34.417Z,92720.97
2019-04-22T07:31:08.124Z,92722.70
2019-04-22T07:33:41.097Z,92722.09
2019-04-22T07:36:30.825Z,92715.70
2019-04-22T07:38:31.078Z,92712.72
2019-04-22T07:41:00.527Z,92713.55
2019-04-22T07:43:54.971Z,92720.28
2019-04-22T07:46:10.980Z,92717.39
2019-04-22T07:48:38.169Z,92715.86
2019-04-22T07:53:37.052Z,92702.07
2019-04-22T07:56:05.166Z,92704.86
2019-04-22T07:58:36.113Z,92698.92
2019-04-22T08:01:12.443Z,92688.78
2019-04-22T08:03:47.402Z,92694.28
2019-04-22T08:11:27.787Z,92679.23
2019-04-22T08:13:36.655Z,92673.70
2019-04-22T08:16:04.813Z,92673.31
2019-04-22T08:18:37.447Z,92667.67
2019-04-22T08:21:04.495Z,92664.59
2019-04-22T08:23:39.925Z,92660.75
2019-04-22T08:26:01.144Z,92654.20
2019-04-22T08:28:41.102Z,92657.27
2019-04-22T08:31:10.645Z,92658.38
2019-04-22T08:38:43.651Z,92649.00
2019-04-22T08:41:22.992Z,92642.92
2019-04-22T08:43:54.460Z,92642.36
2019-04-22T08:46:23.611Z,92639.84
2019-04-22T08:48:45.980Z,92636.25
2019-04-22T08:51:13.605Z,92633.25
2019-04-22T08:53:48.135Z,92628.31
2019-04-22T08:56:23.475Z,92628.80
2019-04-22T08:58:50.799Z,92621.61
2019-04-22T09:01:17.749Z,92625.14
2019-04-22T09:03:45.563Z,92619.66
2019-04-22T09:06:19.922Z,92622.17
2019-04-22T09:08:50.076Z,92615.44
2019-04-22T09:11:20.344Z,92611.84
2019-04-22T09:13:50.425Z,92613.56
2019-04-22T09:16:19.305Z,92610.41
2019-04-22T09:18:48.228Z,92607.59
2019-04-22T09:21:19.377Z,92600.77
2019-04-22T09:23:53.930Z,92602.87
2019-04-22T09:26:18.453Z,92602.87
2019-04-22T09:28:54.515Z,92576.06
2019-04-22T09:31:28.705Z,92592.23
2019-04-22T09:33:46.537Z,92595.58
2019-04-22T09:36:27.275Z,92582.91
2019-04-22T09:41:18.744Z,92585.96
2019-04-22T09:46:14.802Z,92570.40
2019-04-22T09:48:50.237Z,92575.09
2019-04-22T09:51:16.448Z,92571.95
2019-04-22T09:53:54.166Z,92561.70
2019-04-22T09:56:18.074Z,92553.47
2019-04-22T09:58:53.570Z,92549.12
2019-04-22T10:01:24.313Z,92546.83
2019-04-22T10:03:52.663Z,92539.06
2019-04-22T10:06:23.122Z,92537.48
2019-04-22T10:09:02.279Z,92531.58
2019-04-22T10:11:23.942Z,92534.73
2019-04-22T10:13:49.047Z,92524.02
2019-04-22T10:16:20.667Z,92522.16
2019-04-22T10:18:49.099Z,92514.69
2019-04-22T10:21:18.837Z,92517.42
2019-04-22T10:23:47.157Z,92510.81
2019-04-22T10:26:22.330Z,92510.89
2019-04-22T10:28:53.218Z,92504.99
2019-04-22T10:31:21.400Z,92501.04
2019-04-22T10:33:37.685Z,92503.17
2019-04-22T10:35:51.841Z,92497.29
2019-04-22T10:38:20.081Z,92489.05
2019-04-22T10:40:48.354Z,92486.91
2019-04-22T10:43:17.039Z,92476.79
2019-04-22T10:45:46.127Z,92485.60
2019-04-22T10:48:14.699Z,92471.70
2019-04-22T10:50:44.372Z,92472.69
2019-04-22T10:53:13.355Z,92465.89
2019-04-22T10:55:44.894Z,92458.31
2019-04-22T10:58:12.953Z,92459.99
2019-04-22T11:00:41.961Z,92451.94
2019-04-22T11:03:11.863Z,92452.71
2019-04-22T11:05:42.188Z,92447.84
2019-04-22T11:08:22.598Z,92432.55
2019-04-22T11:10:56.428Z,92438.98
2019-04-22T11:13:10.943Z,92432.76
2019-04-22T11:15:40.358Z,92429.41
2019-04-22T11:18:09.532Z,92427.20
2019-04-22T11:20:37.881Z,92418.74
2019-04-22T11:23:06.890Z,92419.11
2019-04-22T11:25:36.172Z,92410.38
2019-04-22T11:28:05.401Z,92415.07
2019-04-22T11:30:34.419Z,92416.81
2019-04-22T11:33:02.846Z,92413.66
2019-04-22T11:35:32.053Z,92405.52
2019-04-22T11:38:01.132Z,92403.93
2019-04-22T11:40:34.874Z,92401.47
2019-04-22T11:42:59.991Z,92399.89
2019-04-22T11:45:29.107Z,92393.02
2019-04-22T11:47:57.520Z,92391.97
2019-04-22T11:50:26.215Z,92390.55
2019-04-22T11:52:55.243Z,92381.66
2019-04-22T11:55:24.476Z,92387.78
2019-04-22T11:57:54.035Z,92386.48
2019-04-22T12:00:25.027Z,92377.50
2019-04-22T12:02:54.697Z,92376.78
2019-04-22T12:05:23.782Z,92368.67
2019-04-22T12:07:53.205Z,92365.17
2019-04-22T12:10:30.893Z,92362.75
2019-04-22T12:12:53.431Z,92356.35
2019-04-22T12:15:22.666Z,92357.38
2019-04-22T12:17:51.028Z,92357.06
2019-04-22T12:20:20.218Z,92352.78
2019-04-22T12:22:49.323Z,92349.73
2019-04-22T12:25:30.012Z,92346.45
2019-04-22T12:27:47.667Z,92348.41
2019-04-22T12:30:16.789Z,92340.73
2019-04-22T12:32:45.589Z,92349.11
2019-04-22T12:35:15.525Z,92338.66
2019-04-22T12:37:49.920Z,92334.73
2019-04-22T12:40:29.396Z,92332.13
2019-04-22T12:42:47.176Z,92330.97
2019-04-22T12:45:16.269Z,92332.73
2019-04-22T12:47:46.173Z,92325.26
2019-04-22T12:50:22.436Z,92318.08
2019-04-22T12:52:53.316Z,92309.30
2019-04-22T12:55:17.343Z,92306.03
2019-04-22T12:57:46.423Z,92303.01
2019-04-22T13:00:17.654Z,92295.58
2019-04-22T13:02:47.316Z,92292.53
2019-04-22T13:05:16.312Z,92279.23
2019-04-22T13:07:44.696Z,92279.23
2019-04-22T13:10:13.829Z,92279.81
2019-04-22T13:12:42.612Z,92275.50
2019-04-22T13:15:14.092Z,92272.91
2019-04-22T13:17:42.450Z,92270.98
2019-04-22T13:20:13.179Z,92259.44
2019-04-22T13:22:40.972Z,92258.00
2019-04-22T13:25:12.419Z,92255.95
2019-04-22T13:27:40.799Z,92254.69
2019-04-22T13:30:12.438Z,92256.30
2019-04-22T13:32:40.937Z,92247.19
2019-04-22T13:35:10.761Z,92244.72
2019-04-22T13:37:39.207Z,92244.48
2019-04-22T13:40:07.725Z,92246.08
2019-04-22T13:42:37.490Z,92235.36
2019-04-22T13:45:09.719Z,92240.30
2019-04-22T13:47:56.078Z,92231.92
2019-04-22T13:50:43.741Z,92238.63
2019-04-22T13:53:23.882Z,92230.16
2019-04-22T13:55:40.861Z,92228.28
2019-04-22T13:57:53.912Z,92228.58
2019-04-22T14:00:13.701Z,92224.57
2019-04-22T14:03:00.378Z,92226.31
2019-04-22T14:05:31.031Z,92224.69
2019-04-22T14:08:00.963Z,92226.91
2019-04-22T14:10:30.192Z,92218.13
2019-04-22T14:13:00.143Z,92217.02
2019-04-22T14:15:27.792Z,92209.16
2019-04-22T14:17:56.815Z,92216.25
2019-04-22T14:20:28.693Z,92204.34
2019-04-22T14:22:56.673Z,92206.00
2019-04-22T14:25:24.966Z,92202.93
2019-04-22T14:28:00.263Z,92192.88
2019-04-22T14:30:24.473Z,92193.45
2019-04-22T14:32:54.135Z,92195.54
2019-04-22T14:35:23.072Z,92180.59
2019-04-22T14:37:52.282Z,92183.45
2019-04-22T14:40:22.978Z,92185.73
2019-04-22T14:43:05.944Z,92179.78
2019-04-22T14:45:58.747Z,92178.28
2019-04-22T14:48:18.831Z,92171.59
2019-04-22T14:50:41.983Z,92167.34
2019-04-22T14:53:15.745Z,92171.73
2019-04-22T14:55:26.895Z,92156.22
2019-04-22T14:57:52.926Z,92152.87
2019-04-22T15:00:23.984Z,92146.88
2019-04-22T15:02:52.334Z,92148.55
2019-04-22T15:05:22.034Z,92138.89
2019-04-22T15:07:50.345Z,92140.09
2019-04-22T15:10:20.053Z,92137.98
2019-04-22T15:12:53.141Z,92134.19
2019-04-22T15:15:42.109Z,92132.69
2019-04-22T15:18:26.221Z,92133.91
2019-04-22T15:20:56.538Z,92130.92
2019-04-22T15:23:24.858Z,92132.67
2019-04-22T15:25:54.652Z,92138.09
2019-04-22T15:28:23.769Z,92129.45
2019-04-22T15:30:53.257Z,92135.31
2019-04-22T15:33:21.588Z,92125.13
2019-04-22T15:35:51.215Z,92119.81
2019-04-22T15:38:22.752Z,92119.25
2019-04-22T15:40:49.893Z,92118.07
2019-04-22T15:43:18.158Z,92116.02
2019-04-22T15:45:46.631Z,92116.57
2019-04-22T15:48:15.058Z,92114.90
2019-04-22T15:50:44.589Z,92114.71
2019-04-22T15:53:13.835Z,92106.91
2019-04-22T15:55:42.858Z,92109.95
2019-04-22T15:58:12.049Z,92108.25
2019-04-22T16:00:52.098Z,92112.23
2019-04-22T16:03:12.509Z,92117.34
2019-04-22T16:05:41.710Z,92117.11
2019-04-22T16:08:10.862Z,92111.22
2019-04-22T16:10:39.829Z,92113.63
2019-04-22T16:13:15.137Z,92107.47
2019-04-22T16:15:38.392Z,92107.13
2019-04-22T16:18:08.620Z,92107.75
2019-04-22T16:20:36.609Z,92100.70
2019-04-22T16:23:15.611Z,92105.23
2019-04-22T16:25:47.159Z,92103.95
2019-04-22T16:28:15.607Z,92097.76
2019-04-22T16:30:43.845Z,92096.05
2019-04-22T16:33:13.174Z,92092.99
2019-04-22T16:35:42.665Z,92095.67
2019-04-22T16:38:10.861Z,92097.76
2019-04-22T16:40:40.760Z,92093.69
2019-04-22T16:43:10.127Z,92090.45
2019-04-22T16:45:40.012Z,92092.57
2019-04-22T16:48:09.377Z,92090.52
2019-04-22T16:50:39.956Z,92092.80
2019-04-22T16:53:08.327Z,92096.81
2019-04-22T16:55:36.938Z,92093.42
2019-04-22T16:58:05.431Z,92087.52
2019-04-22T17:00:34.406Z,92085.62
2019-04-22T17:03:10.833Z,92074.42
2019-04-22T17:05:56.837Z,92066.24
2019-04-22T17:08:26.587Z,92066.82
2019-04-22T17:10:55.783Z,92061.30
2019-04-22T17:13:28.361Z,92060.34
2019-04-22T17:15:56.905Z,92056.91
2019-04-22T17:18:25.356Z,92050.44
2019-04-22T17:20:55.009Z,92038.80
2019-04-22T17:23:23.449Z,92038.80
2019-04-22T17:25:52.490Z,92046.97
2019-04-22T17:28:21.581Z,92040.88
2019-04-22T17:30:50.069Z,92039.16
2019-04-22T17:33:18.880Z,92043.72
2019-04-22T17:35:49.965Z,92039.62
2019-04-22T17:38:28.497Z,92033.06
2019-04-22T17:41:01.477Z,92036.80
2019-04-22T17:43:48.163Z,92024.02
2019-04-22T17:46:24.771Z,92050.88
2019-04-22T17:48:59.190Z,92050.88
2019-04-22T17:51:27.591Z,92051.77
2019-04-22T17:54:02.337Z,92046.44
2019-04-22T17:56:31.971Z,92045.41
2019-04-22T17:59:04.024Z,92046.30
2019-04-22T18:01:29.721Z,92046.19
2019-04-22T18:03:49.208Z,92036.36
2019-04-22T18:06:42.862Z,92035.20
2019-04-22T18:09:03.556Z,92038.46
2019-04-22T18:11:40.201Z,92041.41
2019-04-22T18:14:16.902Z,92039.08
2019-04-22T18:16:31.938Z,92041.19
2019-04-22T18:19:02.804Z,92040.23
2019-04-22T18:21:31.851Z,92038.26
2019-04-22T18:23:58.144Z,92042.81
2019-04-22T18:26:32.103Z,92043.47
2019-04-22T18:29:07.583Z,92043.30
2019-04-22T18:31:27.114Z,92051.98
2019-04-22T18:34:01.965Z,92049.74
2019-04-22T18:36:33.257Z,92035.83
2019-04-22T18:39:10.100Z,92049.56
2019-04-22T18:41:34.253Z,92051.59
2019-04-22T18:44:08.059Z,92052.75
2019-04-22T18:46:35.202Z,92056.16
2019-04-22T18:49:03.409Z,92057.76
2019-04-22T18:51:43.856Z,92057.30
2019-04-22T18:54:28.862Z,92058.98
2019-04-22T18:56:50.793Z,92058.05
2019-04-22T18:59:15.828Z,92056.81
2019-04-22T19:01:37.781Z,92053.00
2019-04-22T19:04:14.195Z,92050.34
2019-04-22T19:07:00.356Z,92055.05
2019-04-22T19:09:38.277Z,92055.25
2019-04-22T19:12:08.002Z,92048.41
2019-04-22T19:14:35.068Z,92056.49
2019-04-22T19:17:11.894Z,92050.66
2019-04-22T19:19:33.488Z,92052.08
2019-04-22T19:21:58.851Z,92050.60
2019-04-22T19:24:22.897Z,92058.11
2019-04-22T19:27:02.432Z,92051.98
2019-04-22T19:29:39.961Z,92047.84
2019-04-22T19:32:01.920Z,92049.00
2019-04-22T19:34:38.487Z,92044.17
2019-04-22T19:37:10.890Z,92046.45
2019-04-22T19:39:31.052Z,92049.48
2019-04-22T19:42:12.447Z,92037.58
2019-04-22T19:44:41.186Z,92045.64
2019-04-22T19:49:48.118Z,92040.09
2019-04-22T19:52:11.289Z,92040.09
2019-04-22T19:54:38.734Z,92038.66
2019-04-22T19:56:57.190Z,92042.02
2019-04-22T19:59:32.285Z,92043.41
2019-04-22T20:02:12.866Z,92039.84
2019-04-22T20:04:59.638Z,92041.55
2019-04-22T20:07:27.726Z,92037.86
2019-04-22T20:09:57.345Z,92034.09
2019-04-22T20:12:26.064Z,92033.55
2019-04-22T20:14:57.768Z,92029.37
2019-04-22T20:17:41.676Z,92022.29
2019-04-22T20:20:05.916Z,92015.13
2019-04-22T20:22:30.392Z,92009.88
2019-04-22T20:24:47.094Z,92005.69
2019-04-22T20:27:30.322Z,92000.72
2019-04-22T20:29:58.196Z,91999.69
2019-04-22T20:32:26.261Z,92002.30
2019-04-22T20:35:02.782Z,91997.86
2019-04-22T20:37:35.481Z,91999.48
2019-04-22T20:40:02.432Z,92002.58
2019-04-22T20:42:48.605Z,91991.83
2019-04-22T20:44:57.008Z,91996.95
2019-04-22T20:47:21.696Z,91997.87
2019-04-22T20:50:04.517Z,91993.39
2019-04-22T20:52:34.418Z,91991.37
2019-04-22T20:54:55.602Z,91982.80
2019-04-22T20:57:33.265Z,91982.63
2019-04-22T20:59:57.306Z,91976.53
2019-04-22T21:02:25.230Z,91971.53
2019-04-22T21:04:48.801Z,91968.05
2019-04-22T21:07:24.081Z,91969.03
2019-04-22T21:09:59.326Z,91970.69
2019-04-22T21:12:20.279Z,91968.05
2019-04-22T21:15:00.455Z,91962.41
2019-04-22T21:17:33.737Z,91960.67
2019-04-22T21:20:06.792Z,91955.88
2019-04-22T21:22:35.758Z,91954.99
2019-04-22T21:24:52.298Z,91954.58
2019-04-22T21:27:35.720Z,91948.63
2019-04-22T21:29:56.342Z,91949.12
2019-04-22T21:32:31.267Z,91948.66
2019-04-22T21:35:16.327Z,91944.97
2019-04-22T21:37:36.087Z,91941.17
2019-04-22T21:39:51.923Z,91941.80
2019-04-22T21:42:28.516Z,91939.80
2019-04-22T21:44:56.952Z,91937.70
2019-04-22T21:47:34.893Z,91940.08
2019-04-22T21:50:18.095Z,91936.38
2019-04-22T21:52:28.223Z,91940.66
2019-04-22T21:55:08.718Z,91938.34
2019-04-22T21:57:57.230Z,91931.38
2019-04-22T22:00:31.189Z,91931.58
2019-04-22T22:02:52.198Z,91925.81
2019-04-22T22:05:14.332Z,91918.16
2019-04-22T22:07:30.769Z,91917.34
2019-04-22T22:10:16.525Z,91914.34
2019-04-22T22:12:52.612Z,91919.90
2019-04-22T22:15:23.116Z,91915.73
2019-04-22T22:17:50.387Z,91918.61
2019-04-22T22:20:17.295Z,91918.48
2019-04-22T22:22:51.919Z,91915.53
2019-04-22T22:25:19.872Z,91917.33
2019-04-22T22:27:46.609Z,91918.02
2019-04-22T22:30:37.149Z,91917.04
2019-04-22T22:32:51.317Z,91915.73
2019-04-22T22:35:20.674Z,91910.58
2019-04-22T22:37:48.687Z,91908.98
2019-04-22T22:40:07.522Z,91906.74
2019-04-22T22:42:36.183Z,91898.59
2019-04-22T22:45:07.784Z,91901.55
2019-04-22T22:47:44.315Z,91903.05
2019-04-22T22:50:20.057Z,91902.36
2019-04-22T22:55:14.816Z,91894.33
2019-04-22T22:57:50.058Z,91891.94
2019-04-22T23:00:17.939Z,91896.77
2019-04-22T23:03:04.914Z,91904.23
2019-04-22T23:05:23.893Z,91897.50
2019-04-22T23:07:55.412Z,91893.16
2019-04-22T23:10:19.747Z,91897.46
2019-04-22T23:12:55.652Z,91897.08
2019-04-22T23:15:18.515Z,91887.63
2019-04-22T23:17:30.458Z,91878.97
2019-04-22T23:20:01.145Z,91881.61
2019-04-22T23:22:41.584Z,91877.23
2019-04-22T23:25:23.409Z,91872.64
2019-04-22T23:27:46.107Z,91860.03
2019-04-22T23:30:25.462Z,91855.06
2019-04-22T23:33:03.566Z,91846.98
2019-04-22T23:35:48.898Z,91842.82
2019-04-22T23:38:20.608Z,91843.63
2019-04-22T23:40:53.853Z,91853.68
2019-04-22T23:43:27.335Z,91851.28
2019-04-22T23:46:01.670Z,91852.28
2019-04-22T23:48:17.920Z,91848.42
2019-04-22T23:50:55.758Z,91843.30
2019-04-22T23:53:55.844Z,91851.77
2019-04-22T23:56:00.214Z,91844.75
2019-04-22T23:58:47.650Z,91845.31
